createdAt,value
2022-11-04T00:01:46.063Z,7.63
2022-11-04T00:06:40.836Z,6.80
2022-11-04T00:09:11.894Z,7.30
2022-11-04T00:11:57.546Z,7.25
2022-11-04T00:17:09.388Z,6.38
2022-11-04T00:19:54.758Z,6.18
2022-11-04T00:22:47.523Z,6.50
2022-11-04T00:25:32.700Z,5.65
2022-11-04T00:28:40.672Z,6.07
2022-11-04T00:31:27.066Z,6.28
2022-11-04T00:33:55.606Z,6.40
2022-11-04T00:36:23.953Z,6.13
2022-11-04T00:38:50.665Z,6.78
2022-11-04T00:41:26.494Z,6.07
2022-11-04T00:44:02.176Z,6.00
2022-11-04T00:48:56.980Z,6.38
2022-11-04T00:51:23.943Z,5.85
2022-11-04T00:53:51.238Z,6.15
2022-11-04T00:56:17.826Z,5.68
2022-11-04T00:58:44.410Z,6.13
2022-11-04T01:01:13.617Z,5.88
2022-11-04T01:03:40.290Z,5.38
2022-11-04T01:06:06.838Z,4.25
2022-11-04T01:08:33.589Z,3.90
2022-11-04T01:11:04.499Z,4.00
2022-11-04T01:13:31.403Z,4.22
2022-11-04T01:16:02.283Z,3.83
2022-11-04T01:18:29.052Z,3.95
2022-11-04T01:21:00.138Z,4.13
2022-11-04T01:23:27.598Z,4.00
2022-11-04T01:25:54.134Z,3.70
2022-11-04T01:28:20.790Z,4.00
2022-11-04T01:30:47.374Z,3.60
2022-11-04T01:33:14.137Z,3.13
2022-11-04T01:35:40.688Z,3.55
2022-11-04T01:38:07.550Z,3.17
2022-11-04T01:40:41.149Z,3.33
2022-11-04T01:43:16.164Z,2.63
2022-11-04T01:45:48.025Z,2.65
2022-11-04T01:48:22.072Z,1.98
2022-11-04T01:50:50.648Z,2.20
2022-11-04T01:53:24.329Z,1.98
2022-11-04T01:55:59.862Z,2.20
2022-11-04T01:58:29.853Z,1.98
2022-11-04T02:00:56.530Z,1.70
2022-11-04T02:03:33.973Z,1.65
2022-11-04T02:06:02.342Z,1.45
2022-11-04T02:08:29.746Z,1.75
2022-11-04T02:11:00.478Z,1.52
2022-11-04T02:13:28.436Z,1.50
2022-11-04T02:16:37.643Z,1.60
2022-11-04T02:19:25.875Z,1.33
2022-11-04T02:22:10.312Z,1.30
2022-11-04T02:25:03.936Z,0.98
2022-11-04T02:27:55.187Z,1.08
2022-11-04T02:30:22.108Z,1.10
2022-11-04T02:32:57.472Z,1.20
2022-11-04T02:35:40.545Z,1.02
2022-11-04T02:38:16.061Z,1.10
2022-11-04T02:41:00.503Z,1.08
2022-11-04T02:43:45.429Z,1.00
2022-11-04T02:46:14.836Z,1.05
2022-11-04T02:48:53.571Z,1.13
2022-11-04T02:51:37.222Z,1.00
2022-11-04T02:54:06.018Z,0.88
2022-11-04T02:56:37.700Z,0.98
2022-11-04T02:59:19.537Z,0.98
2022-11-04T03:01:49.495Z,1.00
2022-11-04T03:04:21.791Z,1.00
2022-11-04T03:06:50.953Z,0.90
2022-11-04T03:09:19.551Z,1.00
2022-11-04T03:11:50.215Z,0.90
2022-11-04T03:14:24.117Z,1.20
2022-11-04T03:16:57.141Z,1.17
2022-11-04T03:19:43.021Z,1.10
2022-11-04T03:22:36.816Z,0.80
2022-11-04T03:25:05.421Z,0.73
2022-11-04T03:27:45.425Z,0.82
2022-11-04T03:30:23.340Z,0.73
2022-11-04T03:33:16.757Z,0.90
2022-11-04T03:35:43.486Z,0.93
2022-11-04T03:38:10.226Z,0.60
2022-11-04T03:40:36.844Z,0.63
2022-11-04T03:43:21.381Z,0.60
2022-11-04T03:45:48.734Z,0.85
2022-11-04T03:48:15.446Z,0.80
2022-11-04T03:50:44.598Z,0.63
2022-11-04T03:53:13.156Z,0.70
2022-11-04T03:56:00.823Z,1.00
2022-11-04T03:58:38.610Z,1.00
2022-11-04T04:01:42.827Z,0.70
2022-11-04T04:04:30.577Z,0.85
2022-11-04T04:07:29.935Z,0.77
2022-11-04T04:10:40.489Z,0.80
2022-11-04T04:13:31.529Z,0.70
2022-11-04T04:16:04.467Z,0.70
2022-11-04T04:18:57.638Z,0.70
2022-11-04T04:21:35.619Z,0.73
2022-11-04T04:24:25.542Z,0.70
2022-11-04T04:27:13.406Z,0.80
2022-11-04T04:29:41.705Z,0.77
2022-11-04T04:32:09.139Z,0.75
2022-11-04T04:34:36.463Z,0.80
2022-11-04T04:37:08.061Z,0.90
2022-11-04T04:40:01.045Z,0.90
2022-11-04T04:42:53.977Z,0.70
2022-11-04T04:45:36.082Z,0.80
2022-11-04T04:48:03.474Z,0.90
2022-11-04T04:50:37.175Z,0.90
2022-11-04T04:53:06.936Z,1.00
2022-11-04T04:55:38.837Z,0.80
2022-11-04T04:58:08.286Z,1.10
2022-11-04T05:00:35.076Z,0.95
2022-11-04T05:03:01.779Z,1.02
2022-11-04T05:05:28.483Z,0.80
2022-11-04T05:07:55.070Z,1.27
2022-11-04T05:10:21.730Z,1.00
2022-11-04T05:13:06.926Z,1.00
2022-11-04T05:15:34.863Z,1.02
2022-11-04T05:18:03.621Z,1.17
2022-11-04T05:20:33.891Z,0.90
2022-11-04T05:23:00.450Z,0.80
2022-11-04T05:25:27.696Z,1.08
2022-11-04T05:27:54.235Z,1.10
2022-11-04T05:30:20.979Z,1.30
2022-11-04T05:32:48.558Z,0.85
2022-11-04T05:35:15.313Z,1.02
2022-11-04T05:37:41.866Z,1.13
2022-11-04T05:40:08.944Z,1.33
2022-11-04T05:42:36.732Z,1.15
2022-11-04T05:45:04.739Z,1.45
2022-11-04T05:47:31.538Z,2.10
2022-11-04T05:49:58.077Z,2.20
2022-11-04T05:52:24.689Z,2.28
2022-11-04T05:54:51.341Z,1.90
2022-11-04T05:57:17.883Z,2.15
2022-11-04T05:59:44.444Z,2.08
2022-11-04T06:02:11.216Z,2.10
2022-11-04T06:04:38.270Z,1.73
2022-11-04T06:07:04.920Z,1.70
2022-11-04T06:09:40.962Z,2.47
2022-11-04T06:12:11.229Z,2.13
2022-11-04T06:14:38.141Z,1.75
2022-11-04T06:17:04.877Z,2.08
2022-11-04T06:19:31.572Z,1.92
2022-11-04T06:21:58.318Z,1.70
2022-11-04T06:24:25.039Z,1.92
2022-11-04T06:26:51.925Z,2.20
2022-11-04T06:29:18.624Z,2.17
2022-11-04T06:31:45.282Z,2.00
2022-11-04T06:34:13.937Z,2.20
2022-11-04T06:36:40.698Z,1.92
2022-11-04T06:42:55.757Z,2.35
2022-11-04T06:45:22.462Z,2.55
2022-11-04T06:47:49.057Z,2.20
2022-11-04T06:50:15.629Z,2.70
2022-11-04T06:52:42.787Z,2.65
2022-11-04T06:55:09.883Z,2.97
2022-11-04T06:57:36.718Z,2.63
2022-11-04T07:00:04.049Z,2.47
2022-11-04T07:02:30.708Z,2.35
2022-11-04T07:07:29.551Z,2.65
2022-11-04T07:09:57.009Z,2.60
2022-11-04T07:12:24.803Z,2.47
2022-11-04T07:14:51.814Z,2.40
2022-11-04T07:17:18.519Z,2.65
2022-11-04T07:19:45.201Z,3.00
2022-11-04T07:22:11.857Z,2.50
2022-11-04T07:24:38.631Z,2.22
2022-11-04T07:27:07.508Z,2.20
2022-11-04T07:29:34.079Z,2.20
2022-11-04T07:32:00.654Z,3.17
2022-11-04T07:34:28.630Z,3.00
2022-11-04T07:36:55.386Z,3.42
2022-11-04T07:39:22.147Z,3.28
2022-11-04T07:41:48.810Z,3.08
2022-11-04T07:44:15.863Z,4.13
2022-11-04T07:46:42.547Z,3.80
2022-11-04T07:49:09.301Z,3.60
2022-11-04T07:51:35.994Z,3.63
2022-11-04T07:54:02.977Z,4.53
2022-11-04T07:56:29.628Z,3.70
2022-11-04T07:58:56.146Z,3.45
2022-11-04T08:01:23.679Z,3.83
2022-11-04T08:03:50.988Z,3.30
2022-11-04T08:06:20.646Z,3.88
2022-11-04T08:08:48.184Z,3.42
2022-11-04T08:11:21.285Z,3.10
2022-11-04T08:13:47.963Z,2.70
2022-11-04T08:16:17.503Z,2.58
2022-11-04T08:18:44.958Z,3.05
2022-11-04T08:21:12.520Z,2.80
2022-11-04T08:23:39.207Z,2.83
2022-11-04T08:26:12.888Z,2.60
2022-11-04T08:28:39.673Z,3.45
2022-11-04T08:31:14.511Z,3.00
2022-11-04T08:33:41.634Z,3.03
2022-11-04T08:36:20.853Z,3.00
2022-11-04T08:38:47.837Z,2.95
2022-11-04T08:41:17.579Z,2.92
2022-11-04T08:43:44.203Z,3.75
2022-11-04T08:46:11.880Z,3.70
2022-11-04T08:48:39.495Z,3.22
2022-11-04T08:51:12.553Z,3.53
2022-11-04T08:53:39.085Z,3.00
2022-11-04T08:56:17.600Z,2.70
2022-11-04T08:58:44.786Z,2.67
2022-11-04T09:01:11.615Z,2.63
2022-11-04T09:03:39.666Z,3.20
2022-11-04T09:06:09.144Z,3.40
2022-11-04T09:08:37.850Z,3.20
2022-11-04T09:11:07.310Z,3.28
2022-11-04T09:13:39.241Z,4.25
2022-11-04T09:16:07.191Z,3.95
2022-11-04T09:18:34.533Z,3.85
2022-11-04T09:21:02.206Z,3.78
2022-11-04T09:23:28.819Z,3.95
2022-11-04T09:25:57.122Z,3.80
2022-11-04T09:28:24.123Z,3.25
2022-11-04T09:30:51.214Z,3.13
2022-11-04T09:33:17.866Z,2.85
2022-11-04T09:35:44.519Z,2.97
2022-11-04T09:38:11.062Z,2.90
2022-11-04T09:40:37.916Z,2.70
2022-11-04T09:43:37.814Z,2.58
2022-11-04T09:46:05.022Z,2.55
2022-11-04T09:48:38.554Z,2.80
2022-11-04T09:51:12.862Z,2.80
2022-11-04T09:53:51.439Z,2.60
2022-11-04T09:56:24.020Z,2.97
2022-11-04T09:58:52.071Z,3.33
2022-11-04T10:01:18.988Z,2.60
2022-11-04T10:03:45.683Z,2.85
2022-11-04T10:06:33.757Z,2.80
2022-11-04T10:09:30.630Z,2.70
2022-11-04T10:12:34.618Z,2.17
2022-11-04T10:15:29.052Z,2.05
2022-11-04T10:18:04.678Z,2.15
2022-11-04T10:21:00.152Z,2.28
2022-11-04T10:23:41.516Z,2.03
2022-11-04T10:26:29.790Z,1.90
2022-11-04T10:29:02.514Z,2.10
2022-11-04T10:31:29.257Z,2.10
2022-11-04T10:34:03.682Z,2.20
2022-11-04T10:36:31.467Z,1.45
2022-11-04T10:38:58.854Z,1.60
2022-11-04T10:41:41.912Z,2.05
2022-11-04T10:44:20.886Z,1.60
2022-11-04T10:47:15.055Z,1.80
2022-11-04T10:50:21.815Z,1.70
2022-11-04T10:55:18.859Z,1.92
2022-11-04T10:57:45.590Z,1.92
2022-11-04T11:00:33.094Z,1.65
2022-11-04T11:02:59.812Z,2.30
2022-11-04T11:05:26.687Z,1.80
2022-11-04T11:07:57.400Z,1.73
2022-11-04T11:10:30.529Z,1.42
2022-11-04T11:13:07.090Z,1.45
2022-11-04T11:15:36.639Z,1.30
2022-11-04T11:18:03.135Z,1.33
2022-11-04T11:20:32.349Z,1.25
2022-11-04T11:23:05.470Z,1.60
2022-11-04T11:25:38.766Z,1.20
2022-11-04T11:28:09.296Z,1.50
2022-11-04T11:30:46.937Z,1.35
2022-11-04T11:33:29.890Z,1.25
2022-11-04T11:36:07.021Z,4.50
2022-11-04T11:38:34.511Z,1.15
2022-11-04T11:41:26.080Z,1.50
2022-11-04T11:43:54.993Z,1.45
2022-11-04T11:46:27.930Z,1.65
2022-11-04T11:49:02.838Z,1.50
2022-11-04T11:51:39.534Z,1.55
2022-11-04T11:54:36.334Z,1.40
2022-11-04T11:57:14.620Z,1.40
2022-11-04T12:02:55.274Z,1.60
2022-11-04T12:12:13.076Z,1.08
2022-11-04T12:15:03.552Z,0.90
2022-11-04T12:17:58.471Z,1.40
2022-11-04T12:20:40.325Z,1.20
2022-11-04T12:23:19.701Z,1.10
2022-11-04T12:26:00.931Z,1.48
2022-11-04T12:28:59.893Z,1.50
2022-11-04T12:31:34.051Z,1.20
2022-11-04T12:34:25.475Z,1.10
2022-11-04T12:37:07.012Z,1.20
2022-11-04T12:39:33.816Z,1.30
2022-11-04T12:42:32.363Z,1.40
2022-11-04T12:45:11.597Z,1.50
2022-11-04T12:47:42.880Z,1.65
2022-11-04T12:50:23.379Z,1.70
2022-11-04T12:53:01.541Z,2.35
2022-11-04T12:56:06.043Z,1.60
2022-11-04T12:58:57.205Z,1.70
2022-11-04T13:01:36.289Z,1.50
2022-11-04T13:04:35.609Z,1.52
2022-11-04T13:07:09.953Z,1.30
2022-11-04T13:09:45.772Z,1.80
2022-11-04T13:12:17.510Z,1.55
2022-11-04T13:14:58.372Z,1.50
2022-11-04T13:17:34.321Z,1.92
2022-11-04T13:20:24.214Z,1.73
2022-11-04T13:22:54.940Z,1.30
2022-11-04T13:25:44.282Z,1.48
2022-11-04T13:28:17.680Z,1.60
2022-11-04T13:30:58.240Z,1.58
2022-11-04T13:33:48.795Z,1.40
2022-11-04T13:36:38.163Z,1.40
2022-11-04T13:39:18.398Z,1.52
2022-11-04T13:42:09.426Z,1.60
2022-11-04T13:44:39.670Z,1.40
2022-11-04T13:47:21.762Z,1.40
2022-11-04T13:49:55.281Z,1.75
2022-11-04T13:52:26.861Z,1.23
2022-11-04T13:54:57.300Z,1.67
2022-11-04T13:57:28.961Z,1.38
2022-11-04T14:00:16.528Z,1.13
2022-11-04T14:02:44.783Z,1.42
2022-11-04T14:05:30.979Z,1.30
2022-11-04T14:08:03.523Z,1.50
2022-11-04T14:10:48.413Z,1.65
2022-11-04T14:13:30.713Z,1.80
2022-11-04T14:16:18.898Z,2.30
2022-11-04T14:18:47.842Z,1.70
2022-11-04T14:21:22.016Z,1.50
2022-11-04T14:24:16.312Z,1.90
2022-11-04T14:26:45.805Z,1.55
2022-11-04T14:29:23.017Z,1.85
2022-11-04T14:31:55.398Z,1.80
2022-11-04T14:34:36.365Z,1.67
2022-11-04T14:37:15.486Z,1.52
2022-11-04T14:39:43.048Z,1.70
2022-11-04T14:42:13.979Z,1.70
2022-11-04T14:44:49.351Z,1.63
2022-11-04T14:47:32.945Z,1.80
2022-11-04T14:49:59.591Z,1.95
2022-11-04T14:52:30.682Z,1.73
2022-11-04T14:55:07.787Z,1.60
2022-11-04T14:57:47.063Z,1.73
2022-11-04T15:00:34.502Z,2.10
2022-11-04T15:03:07.252Z,2.38
2022-11-04T15:05:37.388Z,2.40
2022-11-04T15:08:27.073Z,2.63
2022-11-04T15:10:59.719Z,2.30
2022-11-04T15:13:26.334Z,2.90
2022-11-04T15:15:56.025Z,2.90
2022-11-04T15:18:30.027Z,2.50
2022-11-04T15:20:59.377Z,3.33
2022-11-04T15:23:31.437Z,3.33
2022-11-04T15:25:59.386Z,3.17
2022-11-04T15:28:29.742Z,2.80
2022-11-04T15:31:03.802Z,3.42
2022-11-04T15:33:31.883Z,4.15
2022-11-04T15:35:59.150Z,3.55
2022-11-04T15:38:28.378Z,3.13
2022-11-04T15:41:17.579Z,3.85
2022-11-04T15:43:45.097Z,3.17
2022-11-04T15:46:22.417Z,3.30
2022-11-04T15:49:06.649Z,3.53
2022-11-04T15:51:39.104Z,3.55
2022-11-04T15:54:21.509Z,3.28
2022-11-04T15:56:55.164Z,4.60
2022-11-04T15:59:35.229Z,4.15
2022-11-04T16:02:03.686Z,4.53
2022-11-04T16:04:30.751Z,3.88
2022-11-04T16:07:09.554Z,3.78
2022-11-04T16:09:48.858Z,5.82
2022-11-04T16:12:27.407Z,11.27
2022-11-04T16:14:56.041Z,6.45
2022-11-04T16:17:23.563Z,3.95
2022-11-04T16:20:00.247Z,5.28
2022-11-04T16:22:31.420Z,7.15
2022-11-04T16:25:00.567Z,7.63
2022-11-04T16:27:30.279Z,7.90
2022-11-04T16:30:16.723Z,7.20
2022-11-04T16:32:44.158Z,6.63
2022-11-04T16:35:23.817Z,7.40
2022-11-04T16:37:51.761Z,7.18
2022-11-04T16:40:20.627Z,7.07
2022-11-04T16:42:48.374Z,6.68
2022-11-04T16:45:31.295Z,6.13
2022-11-04T16:47:58.735Z,6.82
2022-11-04T16:50:27.168Z,6.55
2022-11-04T16:52:54.219Z,6.82
2022-11-04T16:55:23.467Z,7.68
2022-11-04T16:57:59.620Z,8.43
2022-11-04T17:00:27.414Z,8.02
2022-11-04T17:02:54.023Z,7.45
2022-11-04T17:05:20.679Z,8.75
2022-11-04T17:08:00.147Z,9.30
2022-11-04T17:10:31.574Z,10.13
2022-11-04T17:12:58.199Z,8.85
2022-11-04T17:15:25.788Z,10.38
2022-11-04T17:17:52.378Z,13.93
2022-11-04T17:20:19.365Z,6.30
2022-11-04T17:22:47.267Z,6.20
2022-11-04T17:25:23.673Z,6.43
2022-11-04T17:27:50.595Z,6.57
2022-11-04T17:30:18.676Z,6.30
2022-11-04T17:32:46.072Z,7.55
2022-11-04T17:35:13.551Z,4.90
2022-11-04T17:37:40.400Z,4.53
2022-11-04T17:40:08.270Z,3.95
2022-11-04T17:42:53.363Z,4.15
2022-11-04T17:45:19.926Z,4.60
2022-11-04T17:47:46.659Z,4.65
2022-11-04T17:50:13.747Z,2.60
2022-11-04T17:52:42.163Z,2.72
2022-11-04T17:55:15.356Z,2.80
2022-11-04T17:57:43.384Z,3.20
2022-11-04T18:00:10.799Z,3.40
2022-11-04T18:02:37.585Z,3.13
2022-11-04T18:05:04.507Z,4.20
2022-11-04T18:07:31.131Z,4.35
2022-11-04T18:09:57.782Z,5.90
2022-11-04T18:12:36.925Z,7.78
2022-11-04T18:15:11.937Z,7.30
2022-11-04T18:17:41.006Z,6.60
2022-11-04T18:20:13.900Z,5.70
2022-11-04T18:22:42.587Z,5.82
2022-11-04T18:25:10.378Z,6.30
2022-11-04T18:27:38.272Z,6.53
2022-11-04T18:30:05.535Z,6.43
2022-11-04T18:32:32.084Z,5.68
2022-11-04T18:34:58.898Z,5.68
2022-11-04T18:37:26.177Z,7.25
2022-11-04T18:39:52.816Z,6.93
2022-11-04T18:42:19.611Z,5.78
2022-11-04T18:44:46.288Z,6.30
2022-11-04T18:47:15.560Z,5.57
2022-11-04T18:49:42.153Z,5.43
2022-11-04T18:52:08.682Z,6.15
2022-11-04T18:54:36.256Z,7.07
2022-11-04T18:57:03.957Z,6.72
2022-11-04T18:59:30.611Z,8.02
2022-11-04T19:01:57.279Z,8.63
2022-11-04T19:04:24.042Z,8.32
2022-11-04T19:06:51.305Z,8.63
2022-11-04T19:12:23.571Z,8.27
2022-11-04T19:17:16.901Z,8.13
2022-11-04T19:19:43.703Z,8.07
2022-11-04T19:22:10.869Z,8.75
2022-11-04T19:24:38.198Z,9.27
2022-11-04T19:27:05.546Z,10.43
2022-11-04T19:29:32.966Z,9.27
2022-11-04T19:32:00.277Z,8.50
2022-11-04T19:34:26.945Z,9.75
2022-11-04T19:36:53.514Z,10.98
2022-11-04T19:39:20.151Z,11.82
2022-11-04T19:42:05.643Z,12.07
2022-11-04T19:44:32.313Z,12.32
2022-11-04T19:46:58.924Z,13.10
2022-11-04T19:49:25.558Z,13.25
2022-11-04T19:51:52.174Z,11.68
2022-11-04T19:54:19.145Z,10.65
2022-11-04T19:56:45.741Z,10.93
2022-11-04T19:59:12.546Z,12.40
2022-11-04T20:01:39.978Z,10.70
2022-11-04T20:04:06.747Z,11.15
2022-11-04T20:06:34.024Z,11.82
2022-11-04T20:09:05.043Z,11.48
2022-11-04T20:11:56.276Z,11.68
2022-11-04T20:14:23.369Z,10.43
2022-11-04T20:16:50.011Z,11.23
2022-11-04T20:19:22.298Z,11.98
2022-11-04T20:21:49.384Z,14.60
2022-11-04T20:24:16.062Z,14.52
2022-11-04T20:26:43.977Z,17.08
2022-11-04T20:29:11.475Z,15.75
2022-11-04T20:31:39.230Z,14.82
2022-11-04T20:34:10.207Z,14.50
2022-11-04T20:36:37.908Z,14.32
2022-11-04T20:39:07.828Z,13.65
2022-11-04T20:41:34.586Z,15.07
2022-11-04T20:44:02.587Z,15.65
2022-11-04T20:46:31.119Z,15.20
2022-11-04T20:48:58.775Z,15.95
2022-11-04T20:51:31.074Z,15.07
2022-11-04T20:54:00.695Z,15.13
2022-11-04T20:56:32.354Z,15.65
2022-11-04T20:58:59.955Z,14.25
2022-11-04T21:01:32.486Z,16.65
2022-11-04T21:04:03.258Z,15.13
2022-11-04T21:06:30.349Z,15.18
2022-11-04T21:09:00.774Z,12.82
2022-11-04T21:11:31.805Z,12.25
2022-11-04T21:13:59.295Z,12.98
2022-11-04T21:16:26.414Z,11.70
2022-11-04T21:18:53.065Z,10.98
2022-11-04T21:21:19.806Z,10.98
2022-11-04T21:23:46.763Z,10.68
2022-11-04T21:26:24.022Z,12.30
2022-11-04T21:28:58.768Z,11.70
2022-11-04T21:31:25.540Z,12.18
2022-11-04T21:33:52.602Z,11.95
2022-11-04T21:36:20.077Z,10.75
2022-11-04T21:38:46.881Z,11.95
2022-11-04T21:41:21.222Z,10.23
2022-11-04T21:43:47.826Z,11.60
2022-11-04T21:46:15.841Z,10.23
2022-11-04T21:48:43.063Z,10.60
2022-11-04T21:51:14.050Z,11.18
2022-11-04T21:53:41.343Z,11.18
2022-11-04T21:56:14.739Z,9.80
2022-11-04T21:58:43.384Z,12.18
2022-11-04T22:01:17.059Z,11.52
2022-11-04T22:03:44.587Z,11.82
2022-11-04T22:06:13.114Z,12.07
2022-11-04T22:08:44.057Z,12.43
2022-11-04T22:11:13.723Z,10.52
2022-11-04T22:13:40.862Z,12.02
2022-11-04T22:16:22.669Z,15.35
2022-11-04T22:18:52.767Z,16.02
2022-11-04T22:21:20.178Z,14.93
2022-11-04T22:23:46.955Z,16.90
2022-11-04T22:26:17.124Z,16.52
2022-11-04T22:28:44.134Z,15.93
2022-11-04T22:31:14.212Z,13.98
2022-11-04T22:33:41.040Z,13.38
2022-11-04T22:36:08.619Z,15.98
2022-11-04T22:38:36.458Z,13.88
2022-11-04T22:41:04.255Z,12.23
2022-11-04T22:43:30.825Z,13.05
2022-11-04T22:45:58.635Z,12.50
2022-11-04T22:48:25.207Z,11.93
2022-11-04T22:50:58.255Z,10.20
2022-11-04T22:53:25.775Z,10.27
2022-11-04T22:55:52.818Z,9.98
2022-11-04T22:58:19.637Z,10.18
2022-11-04T23:00:46.524Z,10.40
2022-11-04T23:03:13.548Z,10.80
2022-11-04T23:05:40.482Z,10.38
2022-11-04T23:08:07.039Z,8.73
2022-11-04T23:10:52.343Z,9.32
2022-11-04T23:13:37.450Z,8.45
2022-11-04T23:16:22.978Z,8.85
2022-11-04T23:21:39.489Z,8.93
2022-11-04T23:24:25.174Z,8.50
2022-11-04T23:26:52.054Z,8.15
2022-11-04T23:29:37.144Z,7.93
2022-11-04T23:32:04.082Z,8.45
2022-11-04T23:34:49.118Z,9.50
2022-11-04T23:37:15.827Z,9.45
2022-11-04T23:39:43.587Z,10.55
2022-11-04T23:42:18.141Z,11.00
2022-11-04T23:45:13.951Z,11.82
2022-11-04T23:48:01.392Z,11.10
2022-11-04T23:50:52.775Z,10.55
2022-11-04T23:53:39.255Z,10.48
2022-11-04T23:56:27.725Z,9.32
2022-11-04T23:59:13.109Z,9.93
